createdAt,value
2022-12-06T00:01:56.488Z,96.03
2022-12-06T00:04:59.510Z,96.02
2022-12-06T00:08:02.356Z,95.82
2022-12-06T00:11:14.205Z,95.81
2022-12-06T00:14:16.977Z,95.87
2022-12-06T00:17:19.970Z,95.97
2022-12-06T00:20:22.568Z,95.97
2022-12-06T00:23:30.212Z,95.56
2022-12-06T00:26:39.854Z,95.84
2022-12-06T00:29:42.791Z,95.54
2022-12-06T00:32:45.351Z,95.56
2022-12-06T00:35:56.072Z,95.70
2022-12-06T00:39:05.235Z,96.06
2022-12-06T00:42:08.076Z,96.01
2022-12-06T00:45:10.991Z,96.13
2022-12-06T00:48:13.857Z,96.10
2022-12-06T00:51:18.018Z,96.19
2022-12-06T00:54:20.968Z,96.11
2022-12-06T00:57:23.630Z,96.24
2022-12-06T01:00:27.440Z,95.84
2022-12-06T01:03:34.956Z,95.76
2022-12-06T01:06:38.486Z,95.65
2022-12-06T01:09:42.567Z,95.71
2022-12-06T01:12:45.708Z,96.00
2022-12-06T01:15:48.301Z,96.08
2022-12-06T01:18:59.528Z,96.23
2022-12-06T01:22:02.131Z,96.39
2022-12-06T01:25:05.464Z,96.37
2022-12-06T01:28:08.118Z,96.72
2022-12-06T01:31:11.266Z,96.78
2022-12-06T01:34:17.143Z,96.90
2022-12-06T01:37:20.110Z,97.13
2022-12-06T01:40:22.674Z,97.18
2022-12-06T01:43:36.355Z,97.24
2022-12-06T01:46:45.477Z,97.15
2022-12-06T01:50:04.442Z,96.88
2022-12-06T01:53:10.935Z,96.67
2022-12-06T01:56:14.015Z,96.58
2022-12-06T01:59:17.443Z,96.73
2022-12-06T02:02:20.798Z,96.81
2022-12-06T02:05:25.472Z,96.90
2022-12-06T02:08:29.573Z,97.13
2022-12-06T02:11:35.512Z,97.30
2022-12-06T02:14:38.669Z,97.27
2022-12-06T02:17:50.130Z,97.12
2022-12-06T02:21:16.428Z,96.99
2022-12-06T02:24:40.711Z,97.12
2022-12-06T02:28:18.938Z,97.23
2022-12-06T02:31:35.098Z,97.49
2022-12-06T02:34:46.933Z,97.41
2022-12-06T02:37:52.934Z,97.71
2022-12-06T02:41:01.108Z,97.82
2022-12-06T02:44:08.048Z,97.84
2022-12-06T02:47:12.950Z,97.95
2022-12-06T02:50:24.858Z,98.05
2022-12-06T02:53:31.167Z,98.07
2022-12-06T02:56:35.291Z,98.07
2022-12-06T02:59:38.246Z,97.98
2022-12-06T03:02:41.847Z,98.15
2022-12-06T03:06:22.789Z,98.12
2022-12-06T03:09:34.935Z,98.30
2022-12-06T03:12:52.411Z,98.57
2022-12-06T03:16:00.961Z,98.41
2022-12-06T03:19:16.122Z,98.56
2022-12-06T03:22:36.931Z,98.62
2022-12-06T03:25:44.503Z,98.91
2022-12-06T03:28:50.440Z,98.68
2022-12-06T03:31:55.412Z,98.68
2022-12-06T03:35:03.783Z,98.40
2022-12-06T03:38:16.077Z,99.14
2022-12-06T03:41:23.823Z,98.71
2022-12-06T03:44:26.877Z,99.14
2022-12-06T03:48:10.855Z,98.92
2022-12-06T03:51:20.579Z,99.19
2022-12-06T03:54:23.602Z,99.15
2022-12-06T03:57:26.191Z,99.07
2022-12-06T04:00:29.647Z,99.02
2022-12-06T04:03:32.550Z,98.94
2022-12-06T04:06:35.276Z,98.66
2022-12-06T04:09:56.485Z,98.58
2022-12-06T04:13:02.261Z,98.54
2022-12-06T04:16:25.587Z,98.47
2022-12-06T04:19:28.196Z,98.32
2022-12-06T04:22:49.875Z,98.18
2022-12-06T04:25:52.436Z,97.39
2022-12-06T04:29:14.042Z,97.47
2022-12-06T04:32:35.739Z,98.15
2022-12-06T04:35:57.380Z,98.20
2022-12-06T04:39:00.270Z,97.96
2022-12-06T04:42:22.491Z,97.43
2022-12-06T04:45:25.197Z,97.53
2022-12-06T04:48:28.076Z,97.82
2022-12-06T04:51:30.714Z,98.01
2022-12-06T04:54:34.654Z,97.54
2022-12-06T04:57:37.269Z,97.51
2022-12-06T05:00:44.692Z,97.58
2022-12-06T05:03:47.382Z,97.29
2022-12-06T05:06:50.355Z,97.48
2022-12-06T05:09:53.043Z,97.45
2022-12-06T05:12:56.158Z,97.05
2022-12-06T05:16:01.278Z,96.86
2022-12-06T05:19:04.909Z,97.19
2022-12-06T05:22:07.543Z,97.62
2022-12-06T05:25:10.486Z,97.80
2022-12-06T05:28:13.021Z,97.88
2022-12-06T05:31:17.469Z,98.23
2022-12-06T05:34:20.057Z,97.80
2022-12-06T05:37:23.207Z,97.72
2022-12-06T05:40:26.112Z,97.65
2022-12-06T05:43:29.611Z,98.18
2022-12-06T05:46:32.184Z,98.15
2022-12-06T05:49:35.079Z,98.06
2022-12-06T05:52:37.692Z,98.01
2022-12-06T05:55:40.918Z,97.65
2022-12-06T05:58:43.651Z,97.54
2022-12-06T06:01:46.634Z,97.00
2022-12-06T06:04:49.645Z,94.45
2022-12-06T06:07:52.315Z,95.70
2022-12-06T06:10:55.942Z,95.82
2022-12-06T06:13:58.649Z,94.93
2022-12-06T06:17:02.008Z,95.77
2022-12-06T06:20:06.504Z,95.44
2022-12-06T06:23:11.722Z,94.60
2022-12-06T06:26:14.926Z,93.42
2022-12-06T06:29:17.812Z,92.22
2022-12-06T06:32:21.080Z,88.92
2022-12-06T06:35:25.064Z,90.83
2022-12-06T06:38:27.792Z,91.91
2022-12-06T06:41:31.002Z,91.75
2022-12-06T06:44:33.641Z,92.73
2022-12-06T06:47:36.839Z,92.54
2022-12-06T06:50:39.688Z,92.53
2022-12-06T06:53:42.791Z,92.69
2022-12-06T06:56:49.725Z,92.90
2022-12-06T06:59:53.064Z,92.99
2022-12-06T07:02:55.750Z,93.56
2022-12-06T07:06:08.608Z,92.74
2022-12-06T07:09:11.450Z,92.74
2022-12-06T07:12:15.382Z,92.63
2022-12-06T07:15:18.207Z,93.30
2022-12-06T07:18:22.651Z,93.98
2022-12-06T07:21:25.545Z,93.80
2022-12-06T07:24:28.440Z,93.58
2022-12-06T07:27:36.877Z,94.08
2022-12-06T07:30:39.919Z,93.74
2022-12-06T07:33:44.194Z,93.02
2022-12-06T07:36:47.147Z,93.51
2022-12-06T07:39:50.022Z,93.20
2022-12-06T07:43:11.639Z,93.25
2022-12-06T07:46:14.441Z,93.72
2022-12-06T07:49:18.412Z,95.02
2022-12-06T07:52:21.359Z,95.92
2022-12-06T07:55:24.335Z,96.90
2022-12-06T07:58:27.005Z,97.03
2022-12-06T08:01:30.341Z,97.03
2022-12-06T08:04:33.259Z,97.20
2022-12-06T08:07:36.011Z,97.06
2022-12-06T08:10:38.999Z,97.37
2022-12-06T08:13:41.570Z,97.88
2022-12-06T08:16:44.489Z,96.76
2022-12-06T08:19:47.142Z,96.37
2022-12-06T08:22:50.700Z,96.60
2022-12-06T08:26:05.263Z,95.42
2022-12-06T08:29:08.253Z,96.13
2022-12-06T08:32:11.013Z,96.21
2022-12-06T08:35:13.895Z,96.26
2022-12-06T08:38:17.165Z,95.69
2022-12-06T08:41:39.522Z,96.14
2022-12-06T08:44:42.116Z,96.25
2022-12-06T08:47:45.069Z,96.37
2022-12-06T08:50:47.740Z,96.87
2022-12-06T08:53:54.239Z,96.86
2022-12-06T08:56:56.994Z,97.61
2022-12-06T09:00:00.155Z,98.15
2022-12-06T09:03:03.019Z,98.03
2022-12-06T09:06:06.463Z,98.92
2022-12-06T09:09:11.186Z,99.58
2022-12-06T09:12:16.136Z,99.80
2022-12-06T09:15:18.671Z,99.77
2022-12-06T09:18:21.942Z,99.65
2022-12-06T09:21:28.886Z,99.26
2022-12-06T09:24:31.831Z,99.32
2022-12-06T09:27:34.454Z,99.64
2022-12-06T09:30:37.676Z,98.63
2022-12-06T09:33:40.397Z,98.36
2022-12-06T09:36:58.271Z,97.46
2022-12-06T09:40:03.817Z,97.27
2022-12-06T09:43:14.878Z,96.91
2022-12-06T09:46:36.029Z,97.59
2022-12-06T09:50:00.919Z,97.63
2022-12-06T09:53:49.098Z,98.11
2022-12-06T09:57:00.426Z,98.58
2022-12-06T10:00:11.610Z,98.75
2022-12-06T10:03:56.289Z,97.85
2022-12-06T10:07:24.786Z,96.82
2022-12-06T10:11:05.369Z,96.53
2022-12-06T10:14:19.797Z,97.11
2022-12-06T10:17:52.067Z,97.70
2022-12-06T10:21:01.377Z,97.83
2022-12-06T10:24:42.446Z,98.46
2022-12-06T10:28:06.312Z,98.12
2022-12-06T10:31:27.267Z,97.91
2022-12-06T10:36:38.807Z,96.20
2022-12-06T10:38:19.498Z,94.87
2022-12-06T10:41:37.803Z,95.98
2022-12-06T10:44:46.183Z,96.84
2022-12-06T10:47:49.827Z,98.18
2022-12-06T10:51:01.853Z,97.82
2022-12-06T10:54:18.541Z,97.47
2022-12-06T10:57:30.922Z,95.96
2022-12-06T11:00:55.287Z,94.33
2022-12-06T11:04:04.237Z,94.18
2022-12-06T11:07:20.811Z,94.74
2022-12-06T11:10:27.410Z,94.39
2022-12-06T11:13:48.122Z,93.63
2022-12-06T11:17:14.031Z,92.76
2022-12-06T11:20:47.981Z,90.42
2022-12-06T11:23:50.551Z,92.31
2022-12-06T11:27:02.687Z,90.62
2022-12-06T11:30:20.215Z,93.11
2022-12-06T11:33:32.753Z,94.32
2022-12-06T11:36:35.555Z,94.79
2022-12-06T11:39:39.685Z,93.46
2022-12-06T11:42:42.390Z,95.33
2022-12-06T11:45:46.616Z,94.91
2022-12-06T11:48:50.249Z,94.54
2022-12-06T11:51:54.563Z,94.67
2022-12-06T11:55:00.556Z,93.06
2022-12-06T11:58:27.078Z,91.88
2022-12-06T12:01:50.222Z,93.09
2022-12-06T12:04:56.434Z,90.43
2022-12-06T12:08:19.989Z,87.62
2022-12-06T12:11:26.456Z,89.92
2022-12-06T12:14:36.339Z,89.71
2022-12-06T12:17:50.152Z,89.00
2022-12-06T12:20:53.651Z,88.94
2022-12-06T12:23:57.859Z,89.95
2022-12-06T12:27:00.523Z,91.55
2022-12-06T12:30:19.870Z,90.61
2022-12-06T12:33:24.069Z,90.67
2022-12-06T12:36:29.248Z,90.50
2022-12-06T12:39:38.877Z,89.36
2022-12-06T12:42:42.702Z,88.53
2022-12-06T12:46:10.401Z,87.19
2022-12-06T12:49:23.306Z,87.88
2022-12-06T12:52:38.879Z,87.57
2022-12-06T12:55:42.273Z,89.44
2022-12-06T12:58:48.921Z,89.33
2022-12-06T13:01:56.595Z,89.16
2022-12-06T13:05:32.532Z,87.29
2022-12-06T13:08:39.417Z,85.38
2022-12-06T13:11:48.340Z,84.51
2022-12-06T13:14:58.206Z,85.18
2022-12-06T13:18:11.826Z,85.65
2022-12-06T13:21:24.270Z,83.97
2022-12-06T13:24:31.559Z,82.03
2022-12-06T13:27:41.700Z,86.12
2022-12-06T13:30:45.772Z,83.62
2022-12-06T13:34:00.355Z,82.36
2022-12-06T13:37:03.397Z,85.72
2022-12-06T13:40:27.045Z,84.97
2022-12-06T13:43:29.617Z,85.29
2022-12-06T13:46:33.507Z,85.03
2022-12-06T13:49:48.628Z,85.17
2022-12-06T13:52:53.995Z,86.51
2022-12-06T13:56:22.522Z,86.97
2022-12-06T13:59:25.686Z,87.64
2022-12-06T14:02:44.605Z,87.51
2022-12-06T14:09:00.388Z,87.51
2022-12-06T14:12:16.904Z,87.70
2022-12-06T14:15:20.364Z,87.97
2022-12-06T14:18:26.520Z,88.53
2022-12-06T14:21:35.952Z,89.12
2022-12-06T14:24:42.164Z,89.66
2022-12-06T14:27:47.848Z,90.78
2022-12-06T14:30:51.321Z,91.88
2022-12-06T14:33:55.729Z,92.72
2022-12-06T14:37:00.870Z,93.03
2022-12-06T14:40:44.567Z,93.71
2022-12-06T14:43:47.611Z,94.61
2022-12-06T14:46:50.557Z,96.14
2022-12-06T14:50:20.612Z,96.94
2022-12-06T14:53:29.328Z,97.72
2022-12-06T14:56:35.457Z,97.99
2022-12-06T15:03:08.381Z,98.22
2022-12-06T15:06:16.322Z,98.37
2022-12-06T15:09:21.919Z,98.47
2022-12-06T15:12:46.742Z,98.66
2022-12-06T15:16:09.145Z,98.52
2022-12-06T15:19:14.379Z,98.28
2022-12-06T15:22:25.174Z,98.35
2022-12-06T15:25:28.299Z,98.81
2022-12-06T15:28:31.468Z,98.82
2022-12-06T15:31:36.044Z,98.60
2022-12-06T15:34:39.003Z,98.77
2022-12-06T15:37:47.275Z,98.59
2022-12-06T15:40:55.193Z,98.26
2022-12-06T15:43:57.821Z,98.17
2022-12-06T15:47:00.711Z,98.52
2022-12-06T15:50:04.433Z,98.60
2022-12-06T15:53:09.696Z,98.67
2022-12-06T15:56:18.260Z,98.90
2022-12-06T15:59:21.551Z,98.60
2022-12-06T16:02:24.278Z,98.58
2022-12-06T16:05:27.307Z,98.35
2022-12-06T16:08:29.947Z,98.57
2022-12-06T16:11:33.011Z,98.35
2022-12-06T16:14:35.647Z,98.59
2022-12-06T16:17:38.547Z,98.74
2022-12-06T16:20:41.497Z,98.21
2022-12-06T16:24:18.039Z,98.54
2022-12-06T16:27:20.701Z,98.54
2022-12-06T16:30:34.590Z,98.21
2022-12-06T16:33:37.363Z,97.98
2022-12-06T16:37:00.657Z,98.33
2022-12-06T16:40:03.478Z,98.07
2022-12-06T16:43:06.406Z,97.78
2022-12-06T16:46:36.705Z,98.19
2022-12-06T16:49:48.802Z,98.18
2022-12-06T16:52:52.450Z,98.06
2022-12-06T16:55:55.505Z,98.69
2022-12-06T16:58:58.809Z,98.07
2022-12-06T17:02:05.913Z,98.39
2022-12-06T17:05:18.653Z,98.27
2022-12-06T17:08:22.295Z,98.15
2022-12-06T17:11:46.999Z,98.10
2022-12-06T17:14:50.478Z,98.02
2022-12-06T17:17:53.259Z,97.57
2022-12-06T17:20:56.876Z,97.53
2022-12-06T17:24:05.306Z,97.43
2022-12-06T17:27:09.576Z,96.97
2022-12-06T17:30:17.850Z,97.74
2022-12-06T17:33:21.065Z,97.72
2022-12-06T17:36:25.339Z,96.41
2022-12-06T17:39:28.275Z,96.33
2022-12-06T17:42:49.200Z,96.28
2022-12-06T17:45:52.580Z,96.60
2022-12-06T17:48:57.446Z,96.54
2022-12-06T17:52:00.630Z,96.35
2022-12-06T17:55:04.524Z,96.28
2022-12-06T17:58:07.636Z,96.69
2022-12-06T18:01:10.291Z,96.94
2022-12-06T18:04:14.300Z,97.29
2022-12-06T18:07:17.827Z,97.92
2022-12-06T18:10:21.057Z,97.90
2022-12-06T18:13:23.755Z,97.56
2022-12-06T18:16:32.681Z,98.05
2022-12-06T18:19:35.919Z,98.44
2022-12-06T18:22:38.935Z,98.64
2022-12-06T18:25:41.866Z,98.25
2022-12-06T18:28:55.878Z,98.11
2022-12-06T18:31:59.224Z,97.81
2022-12-06T18:35:02.847Z,97.91
2022-12-06T18:38:05.973Z,97.86
2022-12-06T18:41:14.623Z,97.70
2022-12-06T18:44:17.215Z,97.75
2022-12-06T18:47:20.259Z,97.78
2022-12-06T18:50:22.937Z,97.23
2022-12-06T18:53:26.105Z,97.56
2022-12-06T18:56:32.242Z,96.92
2022-12-06T18:59:37.709Z,96.88
2022-12-06T19:02:40.735Z,96.86
2022-12-06T19:06:02.357Z,97.36
2022-12-06T19:09:10.197Z,97.44
2022-12-06T19:12:13.199Z,97.73
2022-12-06T19:15:17.304Z,97.35
2022-12-06T19:18:20.351Z,97.22
2022-12-06T19:21:24.601Z,96.91
2022-12-06T19:24:29.412Z,97.50
2022-12-06T19:27:32.587Z,97.55
2022-12-06T19:30:35.763Z,97.13
2022-12-06T19:33:43.303Z,97.19
2022-12-06T19:36:48.461Z,97.43
2022-12-06T19:39:51.964Z,97.46
2022-12-06T19:43:13.908Z,97.52
2022-12-06T19:46:21.546Z,97.42
2022-12-06T19:49:28.595Z,97.67
2022-12-06T19:52:31.584Z,96.67
2022-12-06T19:55:34.766Z,96.61
2022-12-06T19:58:39.507Z,96.63
2022-12-06T20:01:44.957Z,97.12
2022-12-06T20:04:48.804Z,97.92
2022-12-06T20:07:51.378Z,96.71
2022-12-06T20:10:54.399Z,96.14
2022-12-06T20:14:04.781Z,95.71
2022-12-06T20:17:15.750Z,95.93
2022-12-06T20:20:18.589Z,96.61
2022-12-06T20:23:22.775Z,96.70
2022-12-06T20:26:29.475Z,96.93
2022-12-06T20:29:32.859Z,97.10
2022-12-06T20:32:35.450Z,96.86
2022-12-06T20:35:38.795Z,97.13
2022-12-06T20:38:42.806Z,97.42
2022-12-06T20:41:45.926Z,96.86
2022-12-06T20:44:49.027Z,96.53
2022-12-06T20:47:53.380Z,96.41
2022-12-06T20:50:59.409Z,96.20
2022-12-06T20:54:05.819Z,96.46
2022-12-06T20:57:08.607Z,96.24
2022-12-06T21:00:12.921Z,96.39
2022-12-06T21:03:16.048Z,96.15
2022-12-06T21:06:20.719Z,96.17
2022-12-06T21:09:25.432Z,96.36
2022-12-06T21:12:28.735Z,96.57
2022-12-06T21:15:33.015Z,96.87
2022-12-06T21:18:36.245Z,96.55
2022-12-06T21:21:40.832Z,96.66
2022-12-06T21:24:44.085Z,97.15
2022-12-06T21:27:46.914Z,96.10
2022-12-06T21:30:54.233Z,96.02
2022-12-06T21:33:57.664Z,95.87
2022-12-06T21:37:00.634Z,96.29
2022-12-06T21:40:04.322Z,96.11
2022-12-06T21:43:08.178Z,96.25
2022-12-06T21:46:22.934Z,96.26
2022-12-06T21:49:26.047Z,96.47
2022-12-06T21:52:28.743Z,96.44
2022-12-06T21:55:31.777Z,96.20
2022-12-06T21:58:35.939Z,95.92
2022-12-06T22:01:39.244Z,96.21
2022-12-06T22:04:42.178Z,96.44
2022-12-06T22:07:44.904Z,96.32
2022-12-06T22:10:48.011Z,96.59
2022-12-06T22:13:50.688Z,95.13
2022-12-06T22:16:53.599Z,94.99
2022-12-06T22:19:56.258Z,95.39
2022-12-06T22:23:00.488Z,95.57
2022-12-06T22:26:08.247Z,95.48
2022-12-06T22:29:11.158Z,95.64
2022-12-06T22:32:13.810Z,95.42
2022-12-06T22:35:17.148Z,95.52
2022-12-06T22:38:19.785Z,96.14
2022-12-06T22:41:23.815Z,95.06
2022-12-06T22:44:26.496Z,95.44
2022-12-06T22:47:29.434Z,94.67
2022-12-06T22:50:32.046Z,94.43
2022-12-06T22:53:35.411Z,94.55
2022-12-06T22:56:40.482Z,96.17
2022-12-06T22:59:43.329Z,96.05
2022-12-06T23:02:46.134Z,95.41
2022-12-06T23:05:57.236Z,95.02
2022-12-06T23:09:00.042Z,95.35
2022-12-06T23:12:03.519Z,95.41
2022-12-06T23:15:06.936Z,95.61
2022-12-06T23:18:09.846Z,95.60
2022-12-06T23:21:12.589Z,95.50
2022-12-06T23:24:16.022Z,95.29
2022-12-06T23:27:18.653Z,95.31
2022-12-06T23:30:21.805Z,94.89
2022-12-06T23:33:24.423Z,94.57
2022-12-06T23:36:30.060Z,95.02
2022-12-06T23:39:32.603Z,95.18
2022-12-06T23:42:35.516Z,95.27
2022-12-06T23:45:38.192Z,96.90
2022-12-06T23:48:41.967Z,96.37
2022-12-06T23:51:45.458Z,96.43
2022-12-06T23:54:48.367Z,95.99
2022-12-06T23:57:50.991Z,95.73
